createdAt,value
2022-11-04T00:03:12.798Z,2.93
2022-11-04T00:08:15.795Z,3.00
2022-11-04T00:13:17.452Z,3.20
2022-11-04T00:18:19.441Z,2.93
2022-11-04T00:23:22.807Z,3.33
2022-11-04T00:28:24.844Z,3.67
2022-11-04T00:33:27.424Z,3.10
2022-11-04T00:38:31.002Z,3.63
2022-11-04T00:43:32.891Z,3.23
2022-11-04T00:48:35.181Z,3.37
2022-11-04T00:53:38.154Z,2.97
2022-11-04T00:58:40.013Z,4.07
2022-11-04T01:03:41.945Z,4.30
2022-11-04T01:08:45.002Z,4.17
2022-11-04T01:13:50.106Z,5.13
2022-11-04T01:18:51.765Z,4.10
2022-11-04T01:23:55.285Z,5.07
2022-11-04T01:28:57.833Z,4.33
2022-11-04T01:33:59.801Z,4.63
2022-11-04T01:39:03.116Z,4.10
2022-11-04T01:44:46.589Z,4.50
2022-11-04T01:49:52.284Z,4.97
2022-11-04T01:54:59.914Z,5.07
2022-11-04T02:00:05.254Z,4.37
2022-11-04T02:05:07.795Z,5.67
2022-11-04T02:10:12.351Z,4.93
2022-11-04T02:15:14.463Z,4.77
2022-11-04T02:20:30.615Z,4.27
2022-11-04T02:26:08.001Z,4.10
2022-11-04T02:31:19.022Z,4.43
2022-11-04T02:36:30.514Z,5.00
2022-11-04T02:41:41.120Z,5.03
2022-11-04T02:46:51.270Z,5.10
2022-11-04T02:52:01.410Z,4.63
2022-11-04T02:57:07.733Z,5.53
2022-11-04T03:02:17.388Z,5.60
2022-11-04T03:07:24.966Z,5.93
2022-11-04T03:12:32.896Z,6.10
2022-11-04T03:17:43.997Z,5.33
2022-11-04T03:22:46.081Z,5.53
2022-11-04T03:27:54.566Z,5.53
2022-11-04T03:33:03.912Z,5.87
2022-11-04T03:38:05.931Z,5.67
2022-11-04T03:43:12.019Z,6.30
2022-11-04T03:48:15.410Z,6.60
2022-11-04T03:53:20.558Z,6.13
2022-11-04T03:58:33.783Z,5.47
2022-11-04T04:03:47.010Z,6.17
2022-11-04T04:08:53.471Z,6.63
2022-11-04T04:14:09.623Z,6.73
2022-11-04T04:19:16.735Z,5.07
2022-11-04T04:24:22.883Z,6.37
2022-11-04T04:29:26.155Z,6.17
2022-11-04T04:34:31.606Z,5.83
2022-11-04T04:39:38.905Z,5.50
2022-11-04T04:44:42.867Z,5.63
2022-11-04T04:49:51.400Z,6.00
2022-11-04T04:54:53.707Z,5.77
2022-11-04T04:59:55.319Z,5.70
2022-11-04T05:04:58.332Z,5.07
2022-11-04T05:10:00.373Z,5.67
2022-11-04T05:15:02.009Z,5.30
2022-11-04T05:20:05.854Z,5.23
2022-11-04T05:25:08.039Z,6.27
2022-11-04T05:30:10.703Z,5.73
2022-11-04T05:35:13.790Z,5.73
2022-11-04T05:40:15.493Z,6.50
2022-11-04T05:45:17.294Z,6.20
2022-11-04T05:50:20.288Z,6.13
2022-11-04T05:55:22.630Z,6.23
2022-11-04T06:00:24.981Z,6.77
2022-11-04T06:05:28.123Z,6.90
2022-11-04T06:10:29.790Z,6.70
2022-11-04T06:15:31.753Z,6.70
2022-11-04T06:20:34.728Z,7.23
2022-11-04T06:25:36.361Z,7.53
2022-11-04T06:30:38.245Z,8.03
2022-11-04T06:35:41.395Z,7.10
2022-11-04T06:40:43.093Z,7.70
2022-11-04T06:45:45.256Z,8.10
2022-11-04T06:50:48.759Z,8.70
2022-11-04T06:55:51.690Z,7.20
2022-11-04T07:00:53.939Z,9.10
2022-11-04T07:05:57.892Z,9.07
2022-11-04T07:10:59.999Z,10.23
2022-11-04T07:16:04.978Z,10.70
2022-11-04T07:21:10.250Z,10.20
2022-11-04T07:26:12.574Z,9.97
2022-11-04T07:31:14.827Z,9.63
2022-11-04T07:36:18.709Z,9.17
2022-11-04T07:41:21.338Z,9.30
2022-11-04T07:46:23.070Z,7.90
2022-11-04T07:51:27.280Z,8.50
2022-11-04T07:56:31.628Z,8.33
2022-11-04T08:01:33.473Z,8.67
2022-11-04T08:06:37.164Z,7.60
2022-11-04T08:11:39.153Z,8.37
2022-11-04T08:16:40.848Z,8.57
2022-11-04T08:21:43.865Z,7.63
2022-11-04T08:26:45.928Z,8.60
2022-11-04T08:31:48.043Z,8.00
2022-11-04T08:36:51.010Z,8.43
2022-11-04T08:41:53.429Z,8.10
2022-11-04T08:46:55.504Z,6.90
2022-11-04T08:51:59.306Z,6.13
2022-11-04T08:57:01.422Z,7.37
2022-11-04T09:02:03.172Z,6.60
2022-11-04T09:07:08.316Z,5.40
2022-11-04T09:12:10.997Z,5.57
2022-11-04T09:17:12.994Z,5.67
2022-11-04T09:22:16.573Z,5.10
2022-11-04T09:27:18.862Z,4.93
2022-11-04T09:32:20.531Z,4.90
2022-11-04T09:37:23.610Z,5.10
2022-11-04T09:42:41.796Z,5.53
2022-11-04T09:47:46.030Z,4.77
2022-11-04T09:52:54.573Z,4.63
2022-11-04T09:57:58.779Z,4.70
2022-11-04T10:03:21.902Z,4.43
2022-11-04T10:08:45.298Z,4.07
2022-11-04T10:14:02.437Z,3.70
2022-11-04T10:19:25.296Z,3.97
2022-11-04T10:24:41.197Z,4.10
2022-11-04T10:29:47.356Z,4.37
2022-11-04T10:34:53.949Z,4.00
2022-11-04T10:40:05.859Z,4.63
2022-11-04T10:45:12.845Z,4.50
2022-11-04T10:50:28.895Z,4.13
2022-11-04T10:55:38.768Z,4.27
2022-11-04T11:00:41.532Z,4.13
2022-11-04T11:05:43.634Z,4.13
2022-11-04T11:10:52.078Z,3.60
2022-11-04T11:16:06.536Z,4.77
2022-11-04T11:21:12.490Z,3.50
2022-11-04T11:26:19.323Z,4.30
2022-11-04T11:31:21.480Z,4.17
2022-11-04T11:36:25.112Z,3.87
2022-11-04T11:41:29.197Z,4.83
2022-11-04T11:46:33.335Z,5.10
2022-11-04T11:51:37.034Z,4.20
2022-11-04T11:57:07.218Z,4.47
2022-11-04T12:02:25.964Z,4.60
2022-11-04T12:13:22.963Z,4.37
2022-11-04T12:18:49.493Z,5.37
2022-11-04T12:23:55.952Z,4.57
2022-11-04T12:29:20.568Z,4.60
2022-11-04T12:34:32.757Z,4.10
2022-11-04T12:39:53.286Z,4.30
2022-11-04T12:45:07.862Z,4.00
2022-11-04T12:50:21.978Z,4.10
2022-11-04T12:55:37.246Z,4.50
2022-11-04T13:00:48.209Z,4.07
2022-11-04T13:05:54.366Z,4.43
2022-11-04T13:11:01.760Z,4.50
2022-11-04T13:16:09.751Z,5.10
2022-11-04T13:21:15.613Z,4.47
2022-11-04T13:26:18.263Z,4.50
2022-11-04T13:31:30.752Z,4.87
2022-11-04T13:36:40.888Z,4.23
2022-11-04T13:42:09.758Z,4.03
2022-11-04T13:47:22.249Z,5.03
2022-11-04T13:52:29.351Z,4.53
2022-11-04T13:57:52.250Z,4.80
2022-11-04T14:02:56.100Z,4.80
2022-11-04T14:08:11.071Z,4.73
2022-11-04T14:13:44.571Z,4.60
2022-11-04T14:18:49.896Z,4.83
2022-11-04T14:23:54.406Z,5.43
2022-11-04T14:29:03.602Z,5.97
2022-11-04T14:34:08.088Z,4.97
2022-11-04T14:39:23.185Z,4.67
2022-11-04T14:44:30.717Z,5.67
2022-11-04T14:49:46.980Z,6.03
2022-11-04T14:54:50.011Z,6.33
2022-11-04T14:59:51.704Z,5.97
2022-11-04T15:04:58.778Z,5.60
2022-11-04T15:10:02.598Z,6.30
2022-11-04T15:15:33.154Z,6.33
2022-11-04T15:20:45.050Z,6.10
2022-11-04T15:25:49.065Z,5.80
2022-11-04T15:30:59.863Z,5.67
2022-11-04T15:36:03.514Z,7.03
2022-11-04T15:41:05.676Z,4.93
2022-11-04T15:46:18.025Z,6.33
2022-11-04T15:51:23.533Z,5.70
2022-11-04T15:56:28.034Z,5.53
2022-11-04T16:01:29.864Z,5.80
2022-11-04T16:06:35.977Z,7.00
2022-11-04T16:11:39.196Z,7.03
2022-11-04T16:16:47.947Z,6.60
2022-11-04T16:21:59.471Z,5.60
2022-11-04T16:27:02.028Z,5.10
2022-11-04T16:32:07.607Z,5.60
2022-11-04T16:37:10.937Z,5.63
2022-11-04T16:42:14.317Z,5.30
2022-11-04T16:47:17.708Z,6.00
2022-11-04T16:52:24.126Z,5.67
2022-11-04T16:57:26.661Z,4.97
2022-11-04T17:02:31.170Z,5.00
2022-11-04T17:07:52.143Z,6.10
2022-11-04T17:12:55.786Z,5.13
2022-11-04T17:17:57.422Z,4.60
2022-11-04T17:23:00.868Z,4.70
2022-11-04T17:28:02.838Z,5.10
2022-11-04T17:33:04.926Z,4.30
2022-11-04T17:38:10.031Z,5.73
2022-11-04T17:43:12.880Z,5.30
2022-11-04T17:48:14.944Z,4.27
2022-11-04T17:53:20.614Z,5.17
2022-11-04T17:58:22.259Z,5.07
2022-11-04T18:03:24.276Z,4.70
2022-11-04T18:08:27.310Z,4.57
2022-11-04T18:13:29.432Z,5.10
2022-11-04T18:18:31.302Z,5.00
2022-11-04T18:23:35.003Z,4.77
2022-11-04T18:28:37.364Z,4.77
2022-11-04T18:33:39.079Z,4.73
2022-11-04T18:38:42.089Z,4.97
2022-11-04T18:43:44.031Z,4.93
2022-11-04T18:48:49.058Z,5.60
2022-11-04T18:53:52.864Z,4.40
2022-11-04T18:58:54.915Z,4.57
2022-11-04T19:03:57.817Z,5.00
2022-11-04T19:09:13.344Z,5.40
2022-11-04T19:14:27.090Z,4.33
2022-11-04T19:19:29.142Z,4.70
2022-11-04T19:24:32.267Z,5.00
2022-11-04T19:29:34.327Z,4.83
2022-11-04T19:34:37.496Z,4.63
2022-11-04T19:39:41.585Z,4.17
2022-11-04T19:44:44.247Z,4.70
2022-11-04T19:49:46.295Z,5.03
2022-11-04T19:54:49.968Z,4.30
2022-11-04T19:59:51.737Z,4.13
2022-11-04T20:04:53.609Z,4.47
2022-11-04T20:09:56.700Z,4.20
2022-11-04T20:14:58.706Z,5.17
2022-11-04T20:20:00.918Z,4.57
2022-11-04T20:25:04.687Z,4.30
2022-11-04T20:30:07.619Z,4.53
2022-11-04T20:35:09.459Z,4.03
2022-11-04T20:40:13.623Z,4.00
2022-11-04T20:45:16.391Z,4.13
2022-11-04T20:50:18.232Z,4.43
2022-11-04T20:55:22.493Z,4.27
2022-11-04T21:00:24.689Z,3.97
2022-11-04T21:05:27.016Z,4.40
2022-11-04T21:10:33.041Z,4.40
2022-11-04T21:15:36.593Z,4.27
2022-11-04T21:20:45.268Z,4.70
2022-11-04T21:25:51.593Z,4.37
2022-11-04T21:30:54.715Z,4.40
2022-11-04T21:36:02.678Z,4.43
2022-11-04T21:41:09.910Z,4.63
2022-11-04T21:46:14.803Z,3.70
2022-11-04T21:51:23.509Z,4.57
2022-11-04T21:56:33.041Z,4.97
2022-11-04T22:01:38.366Z,4.70
2022-11-04T22:06:41.382Z,4.67
2022-11-04T22:11:52.840Z,4.77
2022-11-04T22:17:06.975Z,4.93
2022-11-04T22:22:10.673Z,4.43
2022-11-04T22:27:13.892Z,5.23
2022-11-04T22:32:16.127Z,4.53
2022-11-04T22:37:18.171Z,4.37
2022-11-04T22:42:21.548Z,4.70
2022-11-04T22:47:23.583Z,4.50
2022-11-04T22:52:25.683Z,4.13
2022-11-04T22:57:28.987Z,4.27
2022-11-04T23:02:36.634Z,4.73
2022-11-04T23:07:39.890Z,4.03
2022-11-04T23:12:43.849Z,5.13
2022-11-04T23:17:46.432Z,4.47
2022-11-04T23:22:48.463Z,4.60
2022-11-04T23:27:57.142Z,4.70
2022-11-04T23:33:01.131Z,4.50
2022-11-04T23:38:03.887Z,4.17
2022-11-04T23:43:07.529Z,4.53
2022-11-04T23:48:10.766Z,4.77
2022-11-04T23:53:13.764Z,3.93
2022-11-04T23:58:17.234Z,4.00
